createdAt,value
2022-09-12T00:00:26.066Z,81.58
2022-09-12T00:02:54.701Z,81.86
2022-09-12T00:05:22.782Z,82.24
2022-09-12T00:07:50.850Z,82.65
2022-09-12T00:10:19.385Z,83.73
2022-09-12T00:12:47.178Z,83.01
2022-09-12T00:15:16.273Z,83.50
2022-09-12T00:17:44.021Z,82.56
2022-09-12T00:20:12.647Z,81.84
2022-09-12T00:22:40.480Z,82.67
2022-09-12T00:25:08.941Z,82.10
2022-09-12T00:27:36.656Z,81.75
2022-09-12T00:30:05.077Z,81.80
2022-09-12T00:32:35.137Z,82.63
2022-09-12T00:35:03.265Z,82.43
2022-09-12T00:37:31.233Z,82.39
2022-09-12T00:39:59.064Z,82.67
2022-09-12T00:42:26.878Z,82.10
2022-09-12T00:44:54.757Z,81.58
2022-09-12T00:47:25.444Z,81.44
2022-09-12T00:49:57.025Z,81.54
2022-09-12T00:52:28.645Z,81.98
2022-09-12T00:55:00.878Z,82.00
2022-09-12T00:57:31.716Z,82.35
2022-09-12T01:00:03.794Z,81.62
2022-09-12T01:02:31.618Z,81.75
2022-09-12T01:05:01.167Z,81.33
2022-09-12T01:07:29.390Z,81.56
2022-09-12T01:09:57.152Z,81.27
2022-09-12T01:12:25.137Z,81.82
2022-09-12T01:14:52.952Z,81.82
2022-09-12T01:17:20.741Z,81.88
2022-09-12T01:20:18.863Z,81.99
2022-09-12T01:23:10.794Z,82.05
2022-09-12T01:25:45.471Z,81.74
2022-09-12T01:28:49.868Z,81.69
2022-09-12T01:31:22.696Z,81.88
2022-09-12T01:33:59.456Z,81.46
2022-09-12T01:36:34.909Z,81.30
2022-09-12T01:39:06.025Z,81.12
2022-09-12T01:41:42.751Z,80.50
2022-09-12T01:44:14.936Z,80.48
2022-09-12T01:46:48.191Z,80.98
2022-09-12T01:49:19.238Z,81.10
2022-09-12T01:51:54.645Z,81.73
2022-09-12T01:54:26.075Z,82.86
2022-09-12T01:56:56.476Z,83.89
2022-09-12T01:59:26.839Z,83.54
2022-09-12T02:01:59.998Z,83.96
2022-09-12T02:04:34.114Z,84.18
2022-09-12T02:07:05.222Z,85.29
2022-09-12T02:09:37.456Z,85.24
2022-09-12T02:12:06.765Z,84.27
2022-09-12T02:14:38.145Z,84.45
2022-09-12T02:17:08.766Z,85.16
2022-09-12T02:19:40.640Z,84.92
2022-09-12T02:22:10.125Z,84.29
2022-09-12T02:24:41.173Z,84.31
2022-09-12T02:27:12.169Z,83.69
2022-09-12T02:29:39.921Z,83.38
2022-09-12T02:32:13.957Z,84.19
2022-09-12T02:34:49.475Z,82.67
2022-09-12T02:37:26.109Z,82.55
2022-09-12T02:39:55.373Z,83.03
2022-09-12T02:42:23.368Z,83.68
2022-09-12T02:44:51.636Z,84.33
2022-09-12T02:47:24.256Z,84.65
2022-09-12T02:49:52.751Z,84.33
2022-09-12T02:52:21.033Z,84.21
2022-09-12T02:54:49.041Z,84.08
2022-09-12T02:57:22.422Z,83.79
2022-09-12T02:59:51.710Z,83.21
2022-09-12T03:02:29.453Z,82.84
2022-09-12T03:05:14.548Z,82.56
2022-09-12T03:08:02.052Z,82.66
2022-09-12T03:10:34.284Z,82.90
2022-09-12T03:13:10.065Z,82.80
2022-09-12T03:15:44.922Z,82.78
2022-09-12T03:18:21.471Z,82.85
2022-09-12T03:20:54.997Z,83.11
2022-09-12T03:23:27.450Z,83.38
2022-09-12T03:25:58.558Z,83.66
2022-09-12T03:28:26.900Z,84.14
2022-09-12T03:30:56.509Z,83.99
2022-09-12T03:33:26.155Z,84.35
2022-09-12T03:35:54.349Z,84.48
2022-09-12T03:38:22.068Z,84.39
2022-09-12T03:40:54.543Z,84.81
2022-09-12T03:43:22.712Z,85.09
2022-09-12T03:45:52.130Z,84.88
2022-09-12T03:48:19.921Z,85.34
2022-09-12T03:50:49.015Z,84.31
2022-09-12T03:53:17.491Z,84.08
2022-09-12T03:55:45.456Z,83.36
2022-09-12T03:58:13.202Z,82.57
2022-09-12T04:00:42.746Z,83.30
2022-09-12T04:03:10.482Z,82.95
2022-09-12T04:05:38.232Z,82.16
2022-09-12T04:08:07.464Z,83.76
2022-09-12T04:10:35.230Z,84.29
2022-09-12T04:13:02.945Z,84.60
2022-09-12T04:15:30.670Z,85.09
2022-09-12T04:18:02.432Z,85.42
2022-09-12T04:20:32.896Z,85.32
2022-09-12T04:23:00.836Z,85.54
2022-09-12T04:25:31.304Z,84.59
2022-09-12T04:27:59.056Z,84.67
2022-09-12T04:30:26.814Z,83.78
2022-09-12T04:32:54.624Z,82.82
2022-09-12T04:35:22.562Z,83.52
2022-09-12T04:37:50.309Z,83.24
2022-09-12T04:40:18.961Z,82.56
2022-09-12T04:42:48.170Z,83.30
2022-09-12T04:45:16.824Z,83.69
2022-09-12T04:47:46.438Z,84.31
2022-09-12T04:50:14.878Z,84.97
2022-09-12T04:52:42.682Z,84.76
2022-09-12T04:55:10.673Z,84.68
2022-09-12T04:57:38.581Z,84.68
2022-09-12T05:00:09.386Z,83.78
2022-09-12T05:02:37.231Z,83.35
2022-09-12T05:05:05.533Z,84.22
2022-09-12T05:07:33.434Z,84.52
2022-09-12T05:10:01.262Z,84.35
2022-09-12T05:12:29.079Z,84.62
2022-09-12T05:14:56.827Z,84.63
2022-09-12T05:17:26.117Z,84.37
2022-09-12T05:19:53.965Z,83.42
2022-09-12T05:22:21.762Z,82.55
2022-09-12T05:24:50.762Z,82.47
2022-09-12T05:27:18.821Z,81.69
2022-09-12T05:29:46.545Z,81.55
2022-09-12T05:32:14.395Z,80.69
2022-09-12T05:34:43.605Z,80.93
2022-09-12T05:37:11.375Z,80.73
2022-09-12T05:39:39.150Z,80.01
2022-09-12T05:42:07.253Z,79.94
2022-09-12T05:44:34.987Z,79.35
2022-09-12T05:47:02.750Z,78.37
2022-09-12T05:49:30.619Z,77.82
2022-09-12T05:51:59.738Z,77.48
2022-09-12T05:54:31.304Z,77.23
2022-09-12T05:56:59.994Z,76.59
2022-09-12T05:59:28.458Z,76.38
2022-09-12T06:01:56.352Z,76.17
2022-09-12T06:04:24.937Z,75.63
2022-09-12T06:06:52.668Z,75.75
2022-09-12T06:09:21.907Z,75.03
2022-09-12T06:11:49.711Z,75.75
2022-09-12T06:14:19.501Z,75.51
2022-09-12T06:16:48.581Z,75.08
2022-09-12T06:19:18.432Z,75.19
2022-09-12T06:21:47.489Z,74.04
2022-09-12T06:24:15.248Z,73.24
2022-09-12T06:26:44.509Z,73.79
2022-09-12T06:29:13.355Z,73.17
2022-09-12T06:31:42.827Z,71.49
2022-09-12T06:34:12.019Z,71.22
2022-09-12T06:36:41.349Z,70.80
2022-09-12T06:39:11.754Z,69.44
2022-09-12T06:41:43.729Z,68.66
2022-09-12T06:44:14.811Z,67.73
2022-09-12T06:46:42.688Z,66.25
2022-09-12T06:49:10.896Z,66.86
2022-09-12T06:51:38.755Z,66.72
2022-09-12T06:54:06.771Z,65.17
2022-09-12T06:56:34.646Z,65.23
2022-09-12T06:59:02.411Z,66.79
2022-09-12T07:01:32.506Z,66.62
2022-09-12T07:04:02.211Z,66.23
2022-09-12T07:06:32.534Z,66.24
2022-09-12T07:09:00.987Z,65.57
2022-09-12T07:11:31.755Z,65.39
2022-09-12T07:14:00.568Z,65.28
2022-09-12T07:16:28.846Z,65.26
2022-09-12T07:18:59.570Z,65.08
2022-09-12T07:21:27.785Z,63.23
2022-09-12T07:23:57.793Z,62.94
2022-09-12T07:26:26.282Z,62.72
2022-09-12T07:29:07.969Z,61.99
2022-09-12T07:31:43.461Z,61.86
2022-09-12T07:34:12.889Z,62.27
2022-09-12T07:36:40.656Z,61.99
2022-09-12T07:39:08.616Z,61.83
2022-09-12T07:41:36.430Z,60.67
2022-09-12T07:44:06.607Z,60.39
2022-09-12T07:46:35.378Z,59.81
2022-09-12T07:49:03.516Z,59.58
2022-09-12T07:51:32.739Z,58.43
2022-09-12T07:54:00.657Z,59.85
2022-09-12T07:56:32.694Z,58.76
2022-09-12T07:59:02.673Z,57.78
2022-09-12T08:01:31.006Z,57.17
2022-09-12T08:04:00.239Z,55.44
2022-09-12T08:06:30.292Z,55.88
2022-09-12T08:09:00.209Z,55.02
2022-09-12T08:11:29.622Z,56.03
2022-09-12T08:13:58.362Z,57.16
2022-09-12T08:16:27.893Z,55.57
2022-09-12T08:18:55.678Z,56.97
2022-09-12T08:21:24.861Z,56.94
2022-09-12T08:23:54.626Z,57.18
2022-09-12T08:26:24.604Z,56.21
2022-09-12T08:28:53.235Z,54.23
2022-09-12T08:31:22.518Z,55.21
2022-09-12T08:33:50.441Z,53.26
2022-09-12T08:36:20.320Z,53.89
2022-09-12T08:38:49.390Z,55.20
2022-09-12T08:41:25.598Z,55.36
2022-09-12T08:44:27.140Z,55.01
2022-09-12T08:47:07.824Z,54.27
2022-09-12T08:49:42.521Z,53.46
2022-09-12T08:52:15.121Z,53.38
2022-09-12T08:54:45.339Z,52.82
2022-09-12T08:57:16.246Z,53.34
2022-09-12T08:59:45.961Z,52.98
2022-09-12T09:02:56.044Z,52.61
2022-09-12T09:05:29.565Z,51.89
2022-09-12T09:08:10.647Z,51.37
2022-09-12T09:10:46.255Z,51.56
2022-09-12T09:13:41.489Z,50.46
2022-09-12T09:16:15.466Z,50.44
2022-09-12T09:18:45.189Z,50.56
2022-09-12T09:21:20.294Z,51.67
2022-09-12T09:23:51.569Z,50.16
2022-09-12T09:26:26.551Z,50.95
2022-09-12T09:29:00.829Z,51.08
2022-09-12T09:31:33.966Z,50.52
2022-09-12T09:34:01.748Z,52.08
2022-09-12T09:36:37.634Z,51.10
2022-09-12T09:39:07.182Z,50.78
2022-09-12T09:41:43.705Z,52.06
2022-09-12T09:44:12.896Z,52.62
2022-09-12T09:46:40.632Z,53.72
2022-09-12T09:49:11.392Z,53.01
2022-09-12T09:51:41.222Z,53.41
2022-09-12T09:54:16.980Z,53.36
2022-09-12T09:56:45.759Z,53.07
2022-09-12T09:59:17.761Z,52.24
2022-09-12T10:01:47.620Z,52.55
2022-09-12T10:04:19.933Z,51.25
2022-09-12T10:06:47.903Z,52.49
2022-09-12T10:09:22.029Z,50.71
2022-09-12T10:11:51.149Z,50.11
2022-09-12T10:14:34.958Z,49.48
2022-09-12T10:17:04.553Z,51.10
2022-09-12T10:19:37.048Z,49.66
2022-09-12T10:22:06.052Z,50.37
2022-09-12T10:24:36.642Z,51.26
2022-09-12T10:27:10.061Z,50.31
2022-09-12T10:29:48.449Z,47.94
2022-09-12T10:32:28.591Z,46.77
2022-09-12T10:35:00.626Z,46.30
2022-09-12T10:37:32.496Z,46.88
2022-09-12T10:40:01.492Z,45.55
2022-09-12T10:42:50.322Z,45.85
2022-09-12T10:45:26.856Z,45.05
2022-09-12T10:47:55.814Z,45.53
2022-09-12T10:50:29.693Z,44.53
2022-09-12T10:53:14.759Z,41.77
2022-09-12T10:55:45.156Z,41.05
2022-09-12T10:58:24.684Z,41.87
2022-09-12T11:00:58.916Z,40.39
2022-09-12T11:03:41.018Z,39.16
2022-09-12T11:06:10.697Z,39.01
2022-09-12T11:08:53.359Z,37.15
2022-09-12T11:11:47.226Z,35.94
2022-09-12T11:14:28.248Z,36.01
2022-09-12T11:17:02.727Z,35.08
2022-09-12T11:19:55.053Z,33.37
2022-09-12T11:22:37.957Z,35.36
2022-09-12T11:25:24.470Z,32.76
2022-09-12T11:28:02.277Z,32.50
2022-09-12T11:30:37.462Z,30.94
2022-09-12T11:33:18.361Z,31.92
2022-09-12T11:35:53.055Z,30.43
2022-09-12T11:38:43.046Z,32.26
2022-09-12T11:41:13.669Z,32.79
2022-09-12T11:43:44.185Z,34.81
2022-09-12T11:46:18.164Z,31.87
2022-09-12T11:48:50.302Z,31.36
2022-09-12T11:51:20.808Z,31.21
2022-09-12T11:54:01.024Z,29.96
2022-09-12T11:56:28.828Z,30.95
2022-09-12T11:59:02.205Z,31.37
2022-09-12T12:01:37.754Z,29.96
2022-09-12T12:04:13.104Z,29.86
2022-09-12T12:06:48.977Z,31.40
2022-09-12T12:09:17.677Z,32.14
2022-09-12T12:11:49.412Z,28.04
2022-09-12T12:14:19.436Z,29.08
2022-09-12T12:16:47.548Z,29.80
2022-09-12T12:19:34.706Z,31.25
2022-09-12T12:22:10.191Z,31.96
2022-09-12T12:25:01.345Z,28.75
2022-09-12T12:27:47.714Z,29.62
2022-09-12T12:31:01.185Z,28.60
2022-09-12T12:34:02.009Z,26.92
2022-09-12T12:36:40.217Z,26.29
2022-09-12T12:40:00.901Z,26.32
2022-09-12T12:43:22.602Z,22.83
2022-09-12T12:46:09.528Z,23.33
2022-09-12T12:48:55.899Z,25.29
2022-09-12T12:51:36.383Z,26.41
2022-09-12T12:54:08.737Z,24.84
2022-09-12T12:56:41.029Z,23.05
2022-09-12T12:59:19.105Z,23.86
2022-09-12T13:01:54.190Z,23.98
2022-09-12T13:04:24.653Z,23.58
2022-09-12T13:07:03.523Z,22.56
2022-09-12T13:09:35.789Z,22.59
2022-09-12T13:12:06.381Z,22.87
2022-09-12T13:14:49.385Z,22.00
2022-09-12T13:17:22.774Z,23.48
2022-09-12T13:20:00.816Z,21.78
2022-09-12T13:22:44.819Z,20.99
2022-09-12T13:25:31.024Z,22.39
2022-09-12T13:28:04.068Z,23.04
2022-09-12T13:30:33.794Z,21.02
2022-09-12T13:33:10.339Z,21.22
2022-09-12T13:35:44.575Z,22.37
2022-09-12T13:38:18.029Z,23.21
2022-09-12T13:40:59.098Z,20.29
2022-09-12T13:43:37.182Z,21.84
2022-09-12T13:46:05.087Z,21.21
2022-09-12T13:48:33.219Z,22.06
2022-09-12T13:51:02.671Z,21.28
2022-09-12T13:53:36.692Z,22.19
2022-09-12T13:56:04.763Z,21.66
2022-09-12T13:58:34.528Z,21.82
2022-09-12T14:01:05.673Z,23.20
2022-09-12T14:03:54.749Z,22.99
2022-09-12T14:06:27.601Z,23.86
2022-09-12T14:08:58.545Z,24.71
2022-09-12T14:11:28.200Z,25.06
2022-09-12T14:13:56.296Z,24.10
2022-09-12T14:16:28.947Z,24.39
2022-09-12T14:18:58.916Z,22.33
2022-09-12T14:21:35.697Z,24.29
2022-09-12T14:24:08.417Z,25.17
2022-09-12T14:26:37.661Z,23.84
2022-09-12T14:29:07.056Z,24.62
2022-09-12T14:31:36.973Z,22.71
2022-09-12T14:34:12.715Z,22.97
2022-09-12T14:36:45.793Z,25.90
2022-09-12T14:39:22.894Z,24.73
2022-09-12T14:41:51.326Z,25.68
2022-09-12T14:44:21.502Z,26.42
2022-09-12T14:46:49.574Z,26.15
2022-09-12T14:49:19.369Z,26.15
2022-09-12T14:51:55.524Z,26.85
2022-09-12T14:54:39.386Z,27.49
2022-09-12T14:57:09.246Z,27.12
2022-09-12T14:59:39.727Z,27.83
2022-09-12T15:02:22.236Z,28.86
2022-09-12T15:04:51.904Z,29.28
2022-09-12T15:07:29.672Z,30.08
2022-09-12T15:10:00.024Z,30.50
2022-09-12T15:12:28.358Z,31.50
2022-09-12T15:14:59.397Z,31.61
2022-09-12T15:17:27.147Z,31.86
2022-09-12T15:19:54.962Z,31.47
2022-09-12T15:22:26.072Z,30.72
2022-09-12T15:24:53.790Z,30.95
2022-09-12T15:27:23.906Z,31.03
2022-09-12T15:29:51.709Z,30.22
2022-09-12T15:32:24.321Z,31.46
2022-09-12T15:34:52.693Z,31.03
2022-09-12T15:37:21.289Z,31.57
2022-09-12T15:39:49.151Z,32.26
2022-09-12T15:42:17.961Z,32.54
2022-09-12T15:44:47.053Z,32.30
2022-09-12T15:47:15.029Z,32.71
2022-09-12T15:49:42.784Z,32.78
2022-09-12T15:52:15.554Z,32.33
2022-09-12T15:54:43.740Z,32.62
2022-09-12T15:57:11.490Z,32.55
2022-09-12T15:59:39.209Z,32.03
2022-09-12T16:02:10.418Z,32.45
2022-09-12T16:04:38.149Z,32.52
2022-09-12T16:07:06.038Z,32.42
2022-09-12T16:09:34.350Z,32.83
2022-09-12T16:12:02.522Z,32.56
2022-09-12T16:14:30.931Z,33.16
2022-09-12T16:16:59.020Z,32.77
2022-09-12T16:19:28.300Z,33.14
2022-09-12T16:21:56.037Z,33.61
2022-09-12T16:24:23.910Z,33.59
2022-09-12T16:26:51.621Z,33.83
2022-09-12T16:29:19.405Z,33.73
2022-09-12T16:31:47.229Z,33.40
2022-09-12T16:34:14.998Z,34.54
2022-09-12T16:36:45.203Z,33.65
2022-09-12T16:39:12.950Z,34.74
2022-09-12T16:41:42.161Z,34.53
2022-09-12T16:44:10.183Z,35.29
2022-09-12T16:46:37.961Z,34.97
2022-09-12T16:49:06.402Z,34.71
2022-09-12T16:51:35.830Z,34.53
2022-09-12T16:54:05.459Z,34.81
2022-09-12T16:56:33.270Z,34.88
2022-09-12T16:59:00.974Z,35.61
2022-09-12T17:01:28.751Z,35.74
2022-09-12T17:03:57.935Z,36.26
2022-09-12T17:06:26.554Z,36.41
2022-09-12T17:08:56.113Z,35.75
2022-09-12T17:11:27.297Z,35.62
2022-09-12T17:14:11.746Z,34.08
2022-09-12T17:16:41.757Z,33.62
2022-09-12T17:19:12.181Z,33.26
2022-09-12T17:21:39.951Z,32.77
2022-09-12T17:24:07.860Z,33.13
2022-09-12T17:26:37.040Z,34.28
2022-09-12T17:29:05.074Z,35.22
2022-09-12T17:31:33.402Z,35.79
2022-09-12T17:34:01.762Z,35.71
2022-09-12T17:36:31.875Z,36.92
2022-09-12T17:39:00.243Z,37.38
2022-09-12T17:41:29.531Z,37.50
2022-09-12T17:44:00.135Z,37.57
2022-09-12T17:46:34.876Z,37.96
2022-09-12T17:49:04.070Z,38.52
2022-09-12T17:51:32.193Z,39.72
2022-09-12T17:54:01.725Z,40.52
2022-09-12T17:56:30.768Z,39.71
2022-09-12T17:59:00.574Z,40.78
2022-09-12T18:01:47.462Z,40.47
2022-09-12T18:04:15.740Z,41.99
2022-09-12T18:06:48.015Z,44.07
2022-09-12T18:09:17.682Z,44.91
2022-09-12T18:11:45.850Z,46.17
2022-09-12T18:14:15.389Z,46.62
2022-09-12T18:16:43.267Z,47.41
2022-09-12T18:19:11.218Z,48.40
2022-09-12T18:21:39.329Z,49.82
2022-09-12T18:24:07.488Z,50.46
2022-09-12T18:26:35.336Z,50.91
2022-09-12T18:29:03.074Z,51.79
2022-09-12T18:31:32.368Z,53.56
2022-09-12T18:34:01.041Z,53.53
2022-09-12T18:36:29.092Z,54.14
2022-09-12T18:38:58.670Z,53.75
2022-09-12T18:41:28.765Z,54.45
2022-09-12T18:43:57.503Z,55.30
2022-09-12T18:46:25.731Z,56.25
2022-09-12T18:48:57.679Z,56.65
2022-09-12T18:51:31.126Z,56.61
2022-09-12T18:54:00.222Z,56.94
2022-09-12T18:56:32.176Z,58.29
2022-09-12T18:59:01.043Z,58.79
2022-09-12T19:01:30.084Z,58.67
2022-09-12T19:03:59.948Z,58.49
2022-09-12T19:06:29.511Z,58.72
2022-09-12T19:08:58.704Z,59.69
2022-09-12T19:11:27.902Z,60.24
2022-09-12T19:13:56.201Z,60.85
2022-09-12T19:16:25.638Z,61.16
2022-09-12T19:18:54.522Z,60.93
2022-09-12T19:21:25.443Z,60.78
2022-09-12T19:23:54.117Z,61.83
2022-09-12T19:26:22.278Z,61.75
2022-09-12T19:28:50.608Z,61.65
2022-09-12T19:31:20.215Z,61.08
2022-09-12T19:33:49.076Z,60.83
2022-09-12T19:36:43.360Z,61.41
2022-09-12T19:39:08.454Z,61.73
2022-09-12T19:41:36.826Z,61.78
2022-09-12T19:44:04.717Z,61.52
2022-09-12T19:46:32.553Z,60.99
2022-09-12T19:49:00.344Z,61.39
2022-09-12T19:51:28.144Z,61.71
2022-09-12T19:53:56.015Z,61.97
2022-09-12T19:56:25.148Z,62.75
2022-09-12T19:58:56.392Z,62.81
2022-09-12T20:01:28.057Z,63.10
2022-09-12T20:03:56.802Z,63.14
2022-09-12T20:06:24.728Z,62.90
2022-09-12T20:08:52.519Z,62.77
2022-09-12T20:11:21.872Z,61.77
2022-09-12T20:13:51.118Z,62.18
2022-09-12T20:16:21.970Z,62.69
2022-09-12T20:18:54.264Z,62.57
2022-09-12T20:21:25.037Z,62.73
2022-09-12T20:23:52.854Z,63.11
2022-09-12T20:26:20.780Z,63.00
2022-09-12T20:28:48.912Z,62.56
2022-09-12T20:31:18.763Z,62.65
2022-09-12T20:33:51.102Z,62.77
2022-09-12T20:36:21.436Z,62.07
2022-09-12T20:38:50.736Z,62.30
2022-09-12T20:41:19.299Z,61.81
2022-09-12T20:43:51.022Z,61.34
2022-09-12T20:46:22.093Z,60.47
2022-09-12T20:48:50.856Z,59.05
2022-09-12T20:51:19.045Z,56.25
2022-09-12T20:53:47.133Z,54.87
2022-09-12T20:56:15.229Z,53.86
2022-09-12T20:58:44.363Z,53.21
2022-09-12T21:01:13.066Z,51.94
2022-09-12T21:03:43.137Z,51.78
2022-09-12T21:06:12.452Z,51.39
2022-09-12T21:08:40.432Z,50.95
2022-09-12T21:11:08.334Z,50.57
2022-09-12T21:13:36.596Z,50.85
2022-09-12T21:16:06.006Z,50.15
2022-09-12T21:18:34.636Z,49.94
2022-09-12T21:21:04.726Z,49.26
2022-09-12T21:23:33.491Z,49.05
2022-09-12T21:26:02.110Z,48.91
2022-09-12T21:28:30.159Z,49.15
2022-09-12T21:30:57.972Z,49.22
2022-09-12T21:33:25.782Z,48.87
2022-09-12T21:35:53.498Z,48.62
2022-09-12T21:38:22.605Z,48.95
2022-09-12T21:40:50.363Z,48.31
2022-09-12T21:43:18.284Z,48.56
2022-09-12T21:45:46.084Z,48.66
2022-09-12T21:48:13.793Z,48.27
2022-09-12T21:50:41.485Z,48.54
2022-09-12T21:53:09.194Z,48.38
2022-09-12T21:55:38.321Z,48.40
2022-09-12T21:58:06.094Z,48.13
2022-09-12T22:00:33.908Z,48.53
2022-09-12T22:03:01.693Z,48.31
2022-09-12T22:05:32.558Z,48.05
2022-09-12T22:08:00.809Z,48.18
2022-09-12T22:10:28.794Z,48.35
2022-09-12T22:12:57.938Z,48.30
2022-09-12T22:15:44.792Z,48.56
2022-09-12T22:18:12.597Z,48.43
2022-09-12T22:20:40.308Z,48.63
2022-09-12T22:23:25.529Z,48.72
2022-09-12T22:25:54.872Z,48.80
2022-09-12T22:28:24.455Z,49.15
2022-09-12T22:30:54.375Z,48.93
2022-09-12T22:33:22.200Z,48.82
2022-09-12T22:35:50.095Z,48.65
2022-09-12T22:38:17.815Z,49.10
2022-09-12T22:40:45.560Z,48.78
2022-09-12T22:43:13.432Z,49.49
2022-09-12T22:45:43.153Z,49.51
2022-09-12T22:48:10.941Z,49.56
2022-09-12T22:50:38.753Z,49.30
2022-09-12T22:53:06.506Z,49.12
2022-09-12T22:55:34.282Z,49.55
2022-09-12T22:58:03.566Z,49.76
2022-09-12T23:00:31.327Z,49.97
2022-09-12T23:03:01.844Z,50.51
2022-09-12T23:05:29.891Z,51.31
2022-09-12T23:07:57.644Z,51.39
2022-09-12T23:10:25.990Z,51.38
2022-09-12T23:12:53.790Z,51.96
2022-09-12T23:15:21.532Z,52.84
2022-09-12T23:17:49.318Z,52.63
2022-09-12T23:20:18.593Z,52.79
2022-09-12T23:22:46.339Z,52.59
2022-09-12T23:25:14.835Z,52.66
2022-09-12T23:27:42.795Z,51.83
2022-09-12T23:30:12.106Z,51.71
2022-09-12T23:32:39.941Z,51.98
2022-09-12T23:35:08.062Z,51.88
2022-09-12T23:37:37.158Z,51.69
2022-09-12T23:40:05.603Z,51.88
2022-09-12T23:42:33.418Z,51.69
2022-09-12T23:45:01.172Z,51.55
2022-09-12T23:47:28.981Z,51.49
2022-09-12T23:49:56.753Z,51.78
2022-09-12T23:52:24.562Z,51.26
2022-09-12T23:54:53.646Z,51.37
2022-09-12T23:57:22.122Z,51.44
2022-09-12T23:59:49.870Z,50.87
